Time;durP1;ratioP1;P1;durP2;ratioP2;P2;SDS_P1;SDS_P2;PMS_P1;PMS_P2;Temp;Humidity;BMP_temperature;BMP_pressure;BME280_temperature;BME280_humidity;BME280_pressure;Samples;Min_cycle;Max_cycle;Signal;HPM_P1;HPM_P2
2021/01/04 00:00:40;;;;;;;51.42;23.58;;;;;;;6.70;96.15;97428.47;5013553;28;20021;-78
2021/01/04 00:03:24;;;;;;;66.18;30.98;;;;;;;6.83;96.00;97431.38;4982238;28;20035;-78
2021/01/04 00:06:11;;;;;;;67.47;32.25;;;;;;;6.88;95.74;97432.88;5007877;28;20561;-78
2021/01/04 00:09:02;;;;;;;61.38;29.02;;;;;;;6.84;95.45;97428.63;5006691;28;20026;-78
2021/01/04 00:11:56;;;;;;;57.33;28.13;;;;;;;6.80;95.56;97420.91;4974116;28;20038;-79
2021/01/04 00:14:36;;;;;;;53.05;25.75;;;;;;;6.74;95.91;97424.69;5024658;28;20034;-78
2021/01/04 00:17:04;;;;;;;51.65;24.30;;;;;;;6.68;95.77;97422.34;4935012;28;20035;-78
2021/01/04 00:19:54;;;;;;;48.25;24.17;;;;;;;6.63;96.05;97411.09;4918431;28;20041;-79
2021/01/04 00:22:29;;;;;;;42.00;21.88;;;;;;;6.51;96.43;97423.16;4975553;28;20033;-78
2021/01/04 00:25:20;;;;;;;41.00;19.52;;;;;;;6.38;96.72;97431.78;4989548;28;20406;-78
2021/01/04 00:27:57;;;;;;;36.28;16.95;;;;;;;6.43;96.57;97435.06;5015866;28;20029;-78
2021/01/04 00:30:36;;;;;;;33.35;17.38;;;;;;;6.40;97.04;97435.22;4974444;28;20427;-77
2021/01/04 00:33:11;;;;;;;35.40;17.52;;;;;;;6.41;96.81;97428.97;4943148;28;20034;-77
2021/01/04 00:35:37;;;;;;;30.65;15.82;;;;;;;6.43;97.53;97435.06;5024464;28;20043;-78
2021/01/04 00:38:35;;;;;;;34.13;16.95;;;;;;;6.36;97.70;97439.84;4972591;28;20110;-78
2021/01/04 00:41:20;;;;;;;39.03;18.20;;;;;;;6.35;98.10;97431.94;5022903;28;20028;-78
2021/01/04 00:43:48;;;;;;;33.30;16.90;;;;;;;6.28;97.57;97419.84;4961558;28;20037;-78
2021/01/04 00:46:19;;;;;;;33.33;17.35;;;;;;;6.24;97.04;97413.84;4972449;28;20452;-78
2021/01/04 00:49:10;;;;;;;35.03;18.52;;;;;;;6.26;98.60;97419.06;4995673;28;20040;-79
2021/01/04 00:51:44;;;;;;;44.05;21.70;;;;;;;6.21;99.03;97414.00;5035448;28;20021;-79
2021/01/04 00:54:28;;;;;;;38.72;18.00;;;;;;;6.22;99.65;97402.44;4956665;28;20062;-78
2021/01/04 00:56:54;;;;;;;40.08;17.52;;;;;;;6.29;99.83;97410.97;5040108;28;20046;-78
2021/01/04 00:59:48;;;;;;;33.40;17.77;;;;;;;6.35;99.35;97408.03;5031574;28;20037;-78
2021/01/04 01:02:40;;;;;;;32.03;15.80;;;;;;;6.42;99.02;97390.88;4993802;28;20196;-78
2021/01/04 01:05:43;;;;;;;31.75;16.63;;;;;;;6.48;98.49;97391.44;5007003;28;20515;-78
2021/01/04 01:08:13;;;;;;;;;;;;;;;6.59;97.97;97392.69;4928063;28;20410;-78
2021/01/04 01:10:44;;;;;;;32.10;15.90;;;;;;;6.57;96.86;97400.75;5008599;28;19914;-79
2021/01/04 01:13:22;;;;;;;32.97;17.58;;;;;;;6.61;96.83;97405.00;5003500;28;20029;-78
2021/01/04 01:16:07;;;;;;;31.35;17.20;;;;;;;6.68;97.14;97411.72;5036654;28;20381;-78
2021/01/04 01:18:40;;;;;;;39.83;19.45;;;;;;;6.70;96.81;97414.31;5001965;28;20032;-78
2021/01/04 01:21:07;;;;;;;48.10;24.15;;;;;;;6.74;97.21;97407.88;4979241;28;20058;-78
2021/01/04 01:23:35;;;;;;;48.20;24.98;;;;;;;6.76;96.79;97396.28;4955592;28;20490;-78
2021/01/04 01:26:25;;;;;;;55.78;25.17;;;;;;;6.79;96.52;97395.25;5005468;28;20482;-78
2021/01/04 01:29:18;;;;;;;56.13;26.48;;;;;;;6.83;96.46;97376.41;4989419;28;20401;-78
2021/01/04 01:32:22;;;;;;;55.47;27.02;;;;;;;6.86;95.82;97376.25;5025652;28;20045;-78
2021/01/04 01:35:06;;;;;;;53.25;26.63;;;;;;;6.85;95.78;97387.84;4960793;28;20038;-78
2021/01/04 01:37:41;;;;;;;54.60;26.13;;;;;;;6.92;95.84;97389.22;5052539;28;20056;-78
2021/01/04 01:40:27;;;;;;;53.58;24.60;;;;;;;6.92;94.56;97377.75;5020041;28;20511;-78
2021/01/04 01:43:08;;;;;;;53.90;25.10;;;;;;;6.92;94.81;97370.63;5030146;28;20033;-79
2021/01/04 01:45:57;;;;;;;53.35;26.38;;;;;;;6.85;95.07;97358.59;5000767;28;20035;-78
2021/01/04 01:48:45;;;;;;;56.97;27.98;;;;;;;6.77;95.52;97370.53;5000849;28;20032;-78
2021/01/04 01:51:23;;;;;;;57.65;27.92;;;;;;;6.84;95.31;97369.28;4924173;28;20065;-78
2021/01/04 01:54:10;;;;;;;56.28;26.33;;;;;;;6.88;95.33;97362.88;5004430;28;20446;-79
2021/01/04 01:56:57;;;;;;;54.25;27.85;;;;;;;6.90;94.78;97361.00;5034640;28;20028;-78
2021/01/04 01:59:52;;;;;;;60.17;29.60;;;;;;;6.81;95.03;97366.78;5014073;28;20110;-78
2021/01/04 02:02:25;;;;;;;58.33;30.30;;;;;;;6.78;95.01;97362.50;4919482;28;20043;-78
2021/01/04 02:04:50;;;;;;;63.28;31.95;;;;;;;6.79;94.55;97368.66;4986121;28;20039;-79
2021/01/04 02:07:25;;;;;;;67.03;35.03;;;;;;;6.79;95.36;97358.91;5005070;28;20031;-78
2021/01/04 02:09:58;;;;;;;63.78;31.73;;;;;;;6.75;95.42;97373.28;5005401;28;20050;-78
2021/01/04 02:12:29;;;;;;;61.97;31.48;;;;;;;6.78;95.37;97362.50;4976227;28;20036;-77
2021/01/04 02:15:08;;;;;;;71.50;35.47;;;;;;;6.76;95.17;97363.50;5052760;28;20415;-77
2021/01/04 02:17:56;;;;;;;72.68;34.95;;;;;;;6.75;95.47;97365.28;5018444;28;20033;-78
2021/01/04 02:21:06;;;;;;;72.10;33.15;;;;;;;6.80;94.53;97359.78;4942388;28;20027;-77
2021/01/04 02:23:57;;;;;;;67.43;34.53;;;;;;;6.72;95.10;97346.84;4969946;28;20039;-77
2021/01/04 02:26:25;;;;;;;67.18;31.40;;;;;;;6.74;94.94;97349.41;4965600;28;20027;-77
2021/01/04 02:29:07;;;;;;;98.53;35.60;;;;;;;6.62;95.62;97340.25;4990658;28;20111;-77
2021/01/04 02:31:34;;;;;;;85.45;32.10;;;;;;;6.62;95.70;97345.56;5001345;28;20101;-77
2021/01/04 02:34:01;;;;;;;89.32;33.35;;;;;;;6.54;95.85;97359.25;4994564;28;20055;-78
2021/01/04 02:36:30;;;;;;;53.80;21.17;;;;;;;6.49;96.13;97355.94;5009130;28;20037;-77
2021/01/04 02:39:17;;;;;;;32.97;16.77;;;;;;;6.48;95.80;97358.69;4997324;28;20049;-78
2021/01/04 02:41:52;;;;;;;29.45;15.23;;;;;;;6.42;95.85;97351.03;4954305;28;20031;-78
2021/01/04 02:44:18;;;;;;;27.15;14.88;;;;;;;6.43;95.32;97358.03;4971036;28;20066;-77
2021/01/04 02:46:45;;;;;;;26.00;14.73;;;;;;;6.23;95.66;97355.50;4954413;28;20019;-77
2021/01/04 02:49:32;;;;;;;31.23;14.40;;;;;;;6.24;96.96;97357.22;4987743;28;20068;-77
2021/01/04 02:52:14;;;;;;;31.08;17.40;;;;;;;6.25;96.18;97354.47;4957818;28;20033;-77
2021/01/04 02:54:54;;;;;;;39.65;17.25;;;;;;;6.26;96.29;97353.56;5008714;28;20038;-78
2021/01/04 02:57:21;;;;;;;35.83;18.77;;;;;;;6.36;95.73;97349.53;4987215;28;20061;-78
2021/01/04 02:59:55;;;;;;;56.22;29.17;;;;;;;6.35;96.10;97354.91;5003185;28;20501;-78
2021/01/04 03:02:29;;;;;;;41.55;22.42;;;;;;;6.43;95.98;97358.03;4954312;28;20028;-77
2021/01/04 03:04:55;;;;;;;43.92;20.63;;;;;;;6.45;95.90;97353.53;4967129;28;20560;-78
2021/01/04 03:07:30;;;;;;;42.38;20.17;;;;;;;6.37;96.25;97353.03;4985923;28;20035;-78
2021/01/04 03:10:16;;;;;;;39.72;19.20;;;;;;;6.46;96.76;97360.56;5021922;28;20082;-77
2021/01/04 03:12:41;;;;;;;40.20;19.15;;;;;;;6.52;96.36;97354.97;5017057;28;20021;-78
2021/01/04 03:15:07;;;;;;;38.75;18.67;;;;;;;6.68;96.09;97366.53;4993823;28;20063;-78
2021/01/04 03:18:03;;;;;;;39.33;19.70;;;;;;;6.75;95.75;97367.09;5004028;28;20041;-78
2021/01/04 03:20:29;;;;;;;37.47;19.10;;;;;;;6.80;95.58;97357.94;4989875;28;20486;-77
2021/01/04 03:22:55;;;;;;;34.17;18.17;;;;;;;6.79;95.20;97358.91;5019549;28;20031;-77
2021/01/04 03:25:57;;;;;;;37.75;17.45;;;;;;;6.68;96.13;97363.88;5003226;28;20508;-77
2021/01/04 03:28:27;;;;;;;33.33;16.30;;;;;;;6.78;96.40;97366.94;5001811;28;20017;-77
2021/01/04 03:30:57;;;;;;;32.83;16.45;;;;;;;6.80;95.69;97352.63;5017815;28;20471;-77
2021/01/04 03:33:22;;;;;;;33.75;17.27;;;;;;;6.69;95.81;97341.69;4988588;28;20027;-77
2021/01/04 03:35:49;;;;;;;33.15;16.52;;;;;;;6.70;96.08;97348.72;5015446;28;20035;-77
2021/01/04 03:38:16;;;;;;;31.80;16.17;;;;;;;6.72;95.89;97354.81;5000797;28;20072;-77
2021/01/04 03:40:42;;;;;;;31.02;17.13;;;;;;;6.49;96.77;97349.78;4976678;28;20035;-77
2021/01/04 03:43:08;;;;;;;35.45;17.73;;;;;;;6.57;96.73;97354.72;4953234;28;20049;-77
2021/01/04 03:45:34;;;;;;;32.00;16.95;;;;;;;6.57;96.73;97363.56;4952893;28;20031;-77
2021/01/04 03:47:59;;;;;;;31.27;17.50;;;;;;;6.52;97.41;97360.28;4986820;28;20049;-77
2021/01/04 03:50:25;;;;;;;34.08;17.73;;;;;;;6.45;97.30;97348.22;4991850;28;20566;-77
2021/01/04 03:52:50;;;;;;;32.83;17.92;;;;;;;6.41;97.44;97341.31;4973075;28;20038;-76
2021/01/04 03:55:16;;;;;;;31.85;17.45;;;;;;;6.34;97.52;97346.06;4995625;28;20033;-76
2021/01/04 03:57:43;;;;;;;32.72;17.58;;;;;;;6.37;97.95;97345.03;4993685;28;20023;-77
2021/01/04 04:00:11;;;;;;;33.30;17.55;;;;;;;6.37;98.61;97342.38;4985840;28;20031;-77
2021/01/04 04:02:37;;;;;;;33.80;17.85;;;;;;;6.41;98.66;97334.22;4972225;28;20029;-77
2021/01/04 04:05:04;;;;;;;42.20;19.55;;;;;;;6.49;98.06;97344.47;5033566;28;20074;-77
2021/01/04 04:07:29;;;;;;;29.30;16.42;;;;;;;6.57;98.08;97347.59;4944887;28;20035;-77
2021/01/04 04:09:55;;;;;;;39.55;18.75;;;;;;;6.56;97.38;97340.56;4982107;28;20029;-77
2021/01/04 04:12:20;;;;;;;32.88;17.40;;;;;;;6.59;97.33;97348.38;4990935;28;20486;-78
2021/01/04 04:14:48;;;;;;;30.38;17.23;;;;;;;6.63;97.35;97357.94;4952802;28;20034;-78
2021/01/04 04:17:15;;;;;;;31.73;17.83;;;;;;;6.54;97.89;97350.41;5024710;28;20178;-78
2021/01/04 04:19:44;;;;;;;40.25;18.05;;;;;;;6.50;98.12;97325.78;5013500;28;20034;-79
2021/01/04 04:22:09;;;;;;;34.53;19.67;;;;;;;6.52;97.90;97318.59;4968507;28;20035;-79
2021/01/04 04:24:38;;;;;;;34.42;18.65;;;;;;;6.63;97.62;97320.72;4987067;28;20033;-79
2021/01/04 04:27:04;;;;;;;33.92;18.67;;;;;;;6.66;97.57;97319.72;4986510;28;20521;-78
2021/01/04 04:29:30;;;;;;;37.85;19.15;;;;;;;6.62;97.37;97319.00;4965498;28;20106;-78
2021/01/04 04:31:56;;;;;;;36.70;19.73;;;;;;;6.61;97.12;97321.75;4973244;28;20027;-80
2021/01/04 04:34:21;;;;;;;32.95;17.65;;;;;;;6.58;97.12;97305.97;4985902;28;20069;-79
2021/01/04 04:36:47;;;;;;;37.25;19.50;;;;;;;6.47;98.13;97310.00;5025920;28;20033;-78
2021/01/04 04:39:14;;;;;;;37.55;20.05;;;;;;;6.27;99.15;97304.81;4982771;28;20034;-79
2021/01/04 04:41:45;;;;;;;44.10;20.67;;;;;;;6.42;99.26;97314.69;4982606;28;20092;-78
2021/01/04 04:44:32;;;;;;;41.38;20.90;;;;;;;6.51;98.89;97310.72;5036926;28;20025;-79
2021/01/04 04:47:13;;;;;;;39.70;20.02;;;;;;;6.51;98.40;97314.25;4998714;28;20032;-79
2021/01/04 04:49:52;;;;;;;57.55;26.52;;;;;;;6.44;98.83;97304.84;4957587;28;20662;-79
2021/01/04 04:52:31;;;;;;;73.32;31.08;;;;;;;6.50;98.89;97303.66;4989855;28;20562;-79
2021/01/04 04:55:20;;;;;;;52.60;26.23;;;;;;;6.35;99.57;97285.84;5031771;28;20039;-79
2021/01/04 04:58:21;;;;;;;50.08;24.13;;;;;;;6.39;99.45;97282.09;5012381;28;20036;-79
2021/01/04 05:01:05;;;;;;;48.30;23.85;;;;;;;6.33;99.83;97287.72;4933096;28;20096;-78
2021/01/04 05:03:46;;;;;;;49.58;23.10;;;;;;;6.34;99.85;97298.25;4999980;28;20064;-78
2021/01/04 05:06:35;;;;;;;46.42;24.00;;;;;;;6.32;100.00;97305.44;5002650;28;20028;-77
2021/01/04 05:09:16;;;;;;;53.35;25.73;;;;;;;6.32;100.00;97305.44;4975442;28;20039;-78
2021/01/04 05:11:44;;;;;;;55.97;26.15;;;;;;;6.29;100.00;97305.59;4987265;28;20104;-77
2021/01/04 05:14:18;;;;;;;61.28;28.70;;;;;;;6.37;100.00;97307.84;4970431;28;20489;-78
2021/01/04 05:17:11;;;;;;;50.22;24.90;;;;;;;6.37;99.95;97318.50;4955905;28;20038;-78
2021/01/04 05:19:52;;;;;;;81.63;40.88;;;;;;;6.45;99.71;97313.69;5005898;28;20084;-80
2021/01/04 05:22:44;;;;;;;85.32;37.42;;;;;;;6.40;99.69;97302.41;4992847;28;20041;-79
2021/01/04 05:25:25;;;;;;;73.45;33.97;;;;;;;6.45;99.92;97306.56;4976201;28;20065;-78
2021/01/04 05:28:10;;;;;;;66.07;33.10;;;;;;;6.33;100.00;97306.31;4985580;28;20545;-76
2021/01/04 05:30:35;;;;;;;57.05;27.27;;;;;;;6.34;100.00;97308.00;5040121;28;20060;-78
2021/01/04 05:33:19;;;;;;;49.22;25.65;;;;;;;6.29;100.00;97304.72;5007538;28;20479;-78
2021/01/04 05:35:45;;;;;;;53.30;26.23;;;;;;;6.27;99.92;97306.63;4942382;28;20030;-77
2021/01/04 05:38:48;;;;;;;61.53;30.40;;;;;;;6.18;100.00;97312.38;4956580;28;20035;-77
2021/01/04 05:41:32;;;;;;;59.78;30.92;;;;;;;6.19;100.00;97308.75;4982478;28;20502;-77
2021/01/04 05:44:04;;;;;;;58.67;29.23;;;;;;;6.17;100.00;97294.72;4981644;28;20068;-78
2021/01/04 05:46:44;;;;;;;56.97;27.75;;;;;;;6.12;100.00;97280.81;5028916;28;20028;-77
2021/01/04 05:49:39;;;;;;;59.92;27.70;;;;;;;6.10;100.00;97288.84;4983646;28;20090;-78
2021/01/04 05:52:05;;;;;;;51.75;27.15;;;;;;;6.16;100.00;97287.66;5036026;28;20025;-78
2021/01/04 05:54:33;;;;;;;56.65;27.58;;;;;;;6.17;100.00;97300.03;4995715;28;20418;-77
2021/01/04 05:57:09;;;;;;;56.72;26.77;;;;;;;6.19;100.00;97292.84;4976916;28;20450;-77
2021/01/04 05:59:56;;;;;;;50.55;26.20;;;;;;;6.18;100.00;97288.47;4967505;28;20489;-78
2021/01/04 06:02:34;;;;;;;69.05;32.08;;;;;;;6.17;100.00;97286.75;5001140;28;20414;-77
2021/01/04 06:05:14;;;;;;;67.50;33.03;;;;;;;6.23;100.00;97284.66;4954144;28;20092;-78
2021/01/04 06:07:42;;;;;;;68.43;31.42;;;;;;;6.29;100.00;97278.19;5030985;28;20095;-77
2021/01/04 06:10:18;;;;;;;58.05;29.38;;;;;;;6.34;99.83;97271.69;5008881;28;20121;-72
2021/01/04 06:12:46;;;;;;;69.07;33.67;;;;;;;6.39;99.17;97274.13;5032668;28;20017;-73
2021/01/04 06:15:12;;;;;;;105.90;45.65;;;;;;;6.41;99.21;97280.22;5034662;28;20411;-73
2021/01/04 06:17:41;;;;;;;80.68;38.35;;;;;;;6.42;98.85;97284.59;5051061;28;20027;-73
2021/01/04 06:20:33;;;;;;;84.47;39.13;;;;;;;6.41;99.01;97281.09;5017474;28;20029;-73
2021/01/04 06:23:10;;;;;;;51.92;28.55;;;;;;;6.41;99.73;97288.19;4941523;28;20045;-73
2021/01/04 06:25:36;;;;;;;41.25;23.08;;;;;;;6.37;99.88;97286.63;4969643;28;20387;-73
2021/01/04 06:28:03;;;;;;;43.38;24.23;;;;;;;6.40;99.82;97287.31;5003283;28;20026;-73
2021/01/04 06:30:30;;;;;;;41.60;22.30;;;;;;;6.36;99.63;97279.59;5038705;28;20044;-74
2021/01/04 06:33:04;;;;;;;39.95;20.90;;;;;;;6.35;99.50;97277.88;5034298;28;20033;-74
2021/01/04 06:35:31;;;;;;;44.95;24.23;;;;;;;6.38;99.18;97278.59;5017099;28;20031;-74
2021/01/04 06:38:10;;;;;;;44.95;24.63;;;;;;;6.43;98.69;97286.31;5034309;28;20522;-74
2021/01/04 06:40:41;;;;;;;26.88;16.48;;;;;;;6.36;98.66;97284.91;5052046;28;20036;-74
2021/01/04 06:43:21;;;;;;;30.30;17.55;;;;;;;6.33;98.87;97270.00;5012021;28;20117;-74
2021/01/04 06:46:08;;;;;;;33.13;19.05;;;;;;;6.43;98.66;97262.41;4997438;28;20089;-74
2021/01/04 06:49:00;;;;;;;35.17;18.52;;;;;;;6.39;98.57;97269.69;5033707;28;20056;-74
2021/01/04 06:52:03;;;;;;;44.38;25.40;;;;;;;6.44;98.01;97272.97;5050516;28;20106;-73
2021/01/04 06:55:13;;;;;;;37.70;20.98;;;;;;;6.41;98.13;97283.75;4984212;28;20083;-73
2021/01/04 06:58:08;;;;;;;51.03;27.98;;;;;;;6.40;98.84;97271.38;4968541;28;20034;-74
2021/01/04 07:00:56;;;;;;;43.83;24.38;;;;;;;6.34;98.51;97265.53;4957492;28;20022;-78
2021/01/04 07:04:01;;;;;;;27.17;16.50;;;;;;;6.43;98.14;97270.38;5053441;28;20025;-79
2021/01/04 07:10:35;;;;;;;20.15;13.13;;;;;;;6.27;97.49;97250.84;4912972;29;20074;-79
2021/01/04 07:13:36;;;;;;;19.25;11.52;;;;;;;6.28;97.39;97258.72;4885735;28;20055;-79
2021/01/04 07:16:16;;;;;;;17.67;10.50;;;;;;;6.38;97.65;97283.03;4960329;28;20087;-78
2021/01/04 07:19:12;;;;;;;16.17;10.18;;;;;;;6.40;98.03;97276.69;4969926;28;20050;-79
2021/01/04 07:21:41;;;;;;;20.73;13.15;;;;;;;6.45;97.78;97268.50;4969512;28;20031;-77
2021/01/04 07:24:40;;;;;;;25.17;15.52;;;;;;;6.52;97.84;97273.44;5034723;28;20401;-80
2021/01/04 07:27:09;;;;;;;26.05;14.18;;;;;;;6.55;97.09;97253.84;5023685;28;20054;-78
2021/01/04 07:29:50;;;;;;;25.35;15.38;;;;;;;6.58;96.01;97235.09;5049206;28;20049;-77
2021/01/04 07:32:33;;;;;;;31.60;17.25;;;;;;;6.66;95.85;97234.69;4984684;28;20423;-78
2021/01/04 07:35:03;;;;;;;27.73;17.25;;;;;;;6.68;95.49;97232.78;4971202;28;20466;-79
2021/01/04 07:38:02;;;;;;;32.47;18.83;;;;;;;6.92;95.09;97266.09;5021575;28;20041;-79
2021/01/04 07:40:34;;;;;;;37.97;22.33;;;;;;;6.84;94.59;97208.00;5037714;28;20036;-78
2021/01/04 07:43:41;;;;;;;27.87;16.90;;;;;;;7.01;94.25;97226.56;5029732;28;20033;-79
2021/01/04 07:46:28;;;;;;;30.52;17.33;;;;;;;7.08;93.89;97220.00;5006415;28;20034;-78
2021/01/04 07:49:31;;;;;;;34.92;20.55;;;;;;;7.13;93.76;97224.22;5007813;28;20032;-78
2021/01/04 07:52:02;;;;;;;37.13;21.85;;;;;;;7.21;93.63;97227.31;5017426;28;20029;-79
2021/01/04 07:55:09;;;;;;;37.30;22.08;;;;;;;7.37;93.12;97214.91;5034823;28;20040;-79
2021/01/04 07:57:44;;;;;;;41.22;23.20;;;;;;;7.39;92.26;97202.38;5051743;28;20111;-78
2021/01/04 08:00:46;;;;;;;46.58;27.10;;;;;;;7.47;92.21;97197.50;5006060;28;20046;-78
2021/01/04 08:03:26;;;;;;;42.37;24.80;;;;;;;7.40;92.99;97196.13;4982428;28;20087;-77
2021/01/04 08:06:02;;;;;;;53.03;24.88;;;;;;;7.36;92.67;97210.53;5050246;28;20271;-78
2021/01/04 08:08:50;;;;;;;38.40;20.63;;;;;;;7.30;92.20;97189.56;4992709;28;20108;-78
2021/01/04 08:11:23;;;;;;;36.58;21.38;;;;;;;7.26;92.79;97198.69;5036915;28;20559;-76
2021/01/04 08:14:33;;;;;;;36.00;21.20;;;;;;;7.38;92.50;97180.22;5003393;28;20582;-77
2021/01/04 08:17:37;;;;;;;57.42;30.63;;;;;;;7.40;93.08;97170.38;4952645;28;20027;-77
2021/01/04 08:20:08;;;;;;;66.35;33.85;;;;;;;7.35;93.30;97172.41;4859455;28;20037;-79
2021/01/04 08:22:55;;;;;;;66.05;31.55;;;;;;;7.43;93.38;97161.38;4922307;28;20372;-77
2021/01/04 08:25:43;;;;;;;43.45;23.52;;;;;;;7.40;92.72;97153.56;4953318;28;20031;-77
2021/01/04 08:28:24;;;;;;;44.25;23.42;;;;;;;7.54;92.47;97158.94;4963567;28;20122;-78
2021/01/04 08:30:55;;;;;;;36.97;20.35;;;;;;;7.44;92.38;97150.66;5053816;28;20057;-76
2021/01/04 08:33:48;;;;;;;52.92;30.08;;;;;;;7.44;92.43;97163.94;5003761;28;20124;-78
2021/01/04 08:36:59;;;;;;;45.55;25.52;;;;;;;7.37;91.65;97143.94;4999653;28;20204;-79
2021/01/04 08:39:24;;;;;;;85.10;44.45;;;;;;;7.58;91.90;97160.50;5002828;28;20046;-79
2021/01/04 08:42:10;;;;;;;109.82;51.63;;;;;;;7.72;91.27;97159.72;5005771;28;20046;-77
2021/01/04 08:44:39;;;;;;;100.00;48.10;;;;;;;7.58;91.01;97141.88;4982698;28;20417;-78
2021/01/04 08:47:52;;;;;;;;;;;;;;;;;;;;;
2021/01/04 08:50:41;;;;;;;83.32;44.55;;;;;;;7.91;90.34;97131.09;4973310;28;20023;-78
2021/01/04 08:53:19;;;;;;;71.60;37.15;;;;;;;7.87;90.07;97118.91;4971141;28;20023;-78
2021/01/04 08:55:45;;;;;;;109.25;57.42;;;;;;;7.86;89.85;97103.88;4982110;28;20060;-78
2021/01/04 08:58:20;;;;;;;60.60;32.15;;;;;;;8.12;89.30;97144.00;5011342;28;20028;-78
2021/01/04 09:00:58;;;;;;;55.00;30.83;;;;;;;8.15;88.41;97116.38;4971445;28;20034;-78
2021/01/04 09:03:25;;;;;;;45.10;26.00;;;;;;;8.32;87.87;97139.34;4988793;28;20034;-78
2021/01/04 09:05:50;;;;;;;55.35;29.95;;;;;;;8.45;86.41;97103.03;4955668;28;20498;-78
2021/01/04 09:08:16;;;;;;;48.38;27.77;;;;;;;8.49;85.71;97107.22;4988590;28;20032;-78
2021/01/04 09:10:48;;;;;;;64.53;34.63;;;;;;;8.53;85.81;97100.75;4954839;28;20356;-79
2021/01/04 09:13:23;;;;;;;66.63;37.40;;;;;;;8.51;85.84;97092.84;4996707;28;20127;-78
2021/01/04 09:15:54;;;;;;;70.28;40.67;;;;;;;8.67;85.34;97082.13;4990976;28;20088;-78
2021/01/04 09:18:28;;;;;;;61.42;33.78;;;;;;;9.04;84.05;97097.53;4966219;28;20027;-78
2021/01/04 09:21:03;;;;;;;59.47;34.05;;;;;;;9.13;82.43;97075.59;4973038;28;20487;-78
2021/01/04 09:23:32;;;;;;;58.78;33.65;;;;;;;9.05;82.56;97071.69;4954839;28;20042;-78
2021/01/04 09:26:01;;;;;;;68.93;39.50;;;;;;;9.22;81.99;97084.84;4988507;28;20478;-79
2021/01/04 09:28:34;;;;;;;70.78;41.83;;;;;;;9.40;81.66;97075.63;5018449;28;20128;-78
2021/01/04 09:30:59;;;;;;;68.97;39.45;;;;;;;9.11;82.36;97065.97;5052680;28;20504;-78
2021/01/04 09:33:25;;;;;;;82.05;44.47;;;;;;;9.66;79.63;97076.59;5005411;28;20026;-78
2021/01/04 09:36:06;;;;;;;80.30;44.15;;;;;;;9.94;78.72;97063.13;4988279;28;20022;-76
2021/01/04 09:38:31;;;;;;;93.70;50.78;;;;;;;10.19;76.20;97071.22;4970809;28;20025;-77
2021/01/04 09:41:03;;;;;;;98.10;53.55;;;;;;;9.99;77.78;97082.38;4972081;28;20099;-77
2021/01/04 09:43:32;;;;;;;104.75;53.17;;;;;;;10.29;76.48;97061.63;4984618;28;20056;-77
2021/01/04 09:46:22;;;;;;;79.65;45.10;;;;;;;10.40;75.72;97062.72;5023098;28;20053;-77
2021/01/04 09:48:58;;;;;;;120.32;63.03;;;;;;;10.57;75.72;97062.38;4954888;28;20034;-78
2021/01/04 09:52:07;;;;;;;100.78;47.50;;;;;;;10.31;76.63;97066.84;4964370;28;20066;-77
2021/01/04 09:54:46;;;;;;;64.32;35.55;;;;;;;10.03;77.03;97029.59;5002772;28;20038;-77
2021/01/04 09:57:20;;;;;;;54.17;32.63;;;;;;;10.13;76.77;97018.19;4940351;28;20459;-78
2021/01/04 09:59:49;;;;;;;50.72;28.38;;;;;;;10.12;77.33;97034.31;5010306;28;20040;-78
2021/01/04 10:02:28;;;;;;;57.60;31.50;;;;;;;10.30;76.67;97054.47;5035953;28;20029;-77
2021/01/04 10:05:12;;;;;;;50.03;23.27;;;;;;;10.15;76.88;97034.97;5036098;28;20120;-76
2021/01/04 10:07:39;;;;;;;45.30;24.35;;;;;;;10.19;76.04;97039.16;4932262;28;20035;-76
2021/01/04 10:10:14;;;;;;;39.30;22.05;;;;;;;10.22;76.63;97025.56;4916260;28;20054;-79
2021/01/04 10:12:40;;;;;;;43.55;23.67;;;;;;;10.10;77.37;97018.38;4924154;28;20084;-76
2021/01/04 10:15:13;;;;;;;36.10;20.90;;;;;;;9.75;78.76;97001.22;4955162;28;20486;-77
2021/01/04 10:17:46;;;;;;;42.92;23.90;;;;;;;9.87;79.58;96995.06;4955136;28;20065;-77
2021/01/04 10:20:26;;;;;;;42.95;22.80;;;;;;;9.91;78.48;96993.88;4956566;28;20034;-78
2021/01/04 10:22:54;;;;;;;37.47;19.50;;;;;;;9.93;79.13;96983.94;5036729;28;20033;-78
2021/01/04 10:25:42;;;;;;;30.75;17.65;;;;;;;10.03;78.46;96957.47;5037044;28;20037;-79
2021/01/04 10:28:17;;;;;;;38.38;19.42;;;;;;;10.14;77.03;96942.41;5036668;28;20500;-79
2021/01/04 10:30:42;;;;;;;42.42;21.25;;;;;;;10.17;77.78;96963.59;5051965;28;20056;-77
2021/01/04 10:33:09;;;;;;;36.67;21.33;;;;;;;10.10;77.85;96964.94;4986339;28;20030;-77
2021/01/04 10:35:35;;;;;;;42.88;19.88;;;;;;;9.99;78.76;96964.84;4994310;28;20408;-77
2021/01/04 10:38:06;;;;;;;33.30;18.30;;;;;;;10.00;78.66;96961.19;5037025;28;20045;-78
2021/01/04 10:41:06;;;;;;;38.45;23.20;;;;;;;9.87;79.65;96930.09;5008286;28;20046;-80
2021/01/04 10:43:32;;;;;;;41.60;22.30;;;;;;;9.90;79.08;96927.22;4938854;28;20043;-79
2021/01/04 10:45:58;;;;;;;33.53;18.63;;;;;;;9.95;78.85;96925.06;5011323;28;20488;-77
2021/01/04 10:48:26;;;;;;;32.40;17.52;;;;;;;10.00;79.49;96938.94;5034562;28;20082;-79
2021/01/04 10:50:54;;;;;;;41.70;19.13;;;;;;;9.95;79.42;96904.53;4980390;28;20073;-77
2021/01/04 10:53:35;;;;;;;85.68;47.75;;;;;;;10.11;78.94;96937.25;4988421;28;20489;-78
2021/01/04 10:56:16;;;;;;;86.72;40.58;;;;;;;9.92;80.06;96920.78;5052158;28;20507;-77
2021/01/04 10:58:47;;;;;;;81.88;44.28;;;;;;;9.76;80.91;96914.78;5017043;28;20043;-77
2021/01/04 11:01:24;;;;;;;92.25;47.15;;;;;;;9.68;81.98;96912.66;4987207;28;20486;-77
2021/01/04 11:03:56;;;;;;;84.95;45.60;;;;;;;9.70;81.40;96912.53;4930775;29;20460;-77
2021/01/04 11:06:27;;;;;;;86.50;46.97;;;;;;;9.59;81.56;96896.41;4981356;28;20032;-79
2021/01/04 11:08:53;;;;;;;80.07;43.45;;;;;;;9.67;82.33;96896.72;5034062;28;20123;-80
2021/01/04 11:11:39;;;;;;;73.00;39.80;;;;;;;9.78;81.60;96904.88;5033731;28;20128;-78
2021/01/04 11:14:21;;;;;;;65.43;32.70;;;;;;;9.74;81.60;96877.53;5035194;28;20502;-78
2021/01/04 11:16:52;;;;;;;108.22;55.65;;;;;;;9.64;81.73;96875.59;5050470;28;20493;-78
2021/01/04 11:19:33;;;;;;;76.25;39.28;;;;;;;9.71;82.90;96869.72;5034356;28;20493;-79
2021/01/04 11:22:15;;;;;;;70.63;30.50;;;;;;;9.85;81.68;96868.75;5050416;28;20024;-79
2021/01/04 11:24:41;;;;;;;59.42;25.48;;;;;;;9.89;81.98;96866.72;5034383;28;20029;-77
2021/01/04 11:27:08;;;;;;;46.42;25.15;;;;;;;9.83;82.16;96841.31;4976461;28;20034;-77
2021/01/04 11:29:34;;;;;;;44.00;23.20;;;;;;;9.58;83.29;96854.66;5036426;28;20143;-78
2021/01/04 11:32:00;;;;;;;39.55;20.75;;;;;;;9.40;84.05;96822.06;4953640;28;20490;-77
2021/01/04 11:34:27;;;;;;;47.00;22.10;;;;;;;9.30;84.19;96814.78;5006035;28;20141;-78
2021/01/04 11:36:52;;;;;;;40.67;24.67;;;;;;;9.35;85.16;96820.69;5051177;28;20068;-79
2021/01/04 11:39:19;;;;;;;38.00;22.52;;;;;;;9.27;85.58;96811.38;5022410;28;20035;-78
2021/01/04 11:41:45;;;;;;;41.40;23.08;;;;;;;9.36;86.33;96825.91;4986916;28;20542;-78
2021/01/04 11:44:11;;;;;;;41.25;22.63;;;;;;;9.34;85.24;96817.16;4970516;28;20501;-78
2021/01/04 11:46:37;;;;;;;30.75;17.38;;;;;;;9.49;85.10;96826.78;4971468;28;20030;-79
2021/01/04 11:49:04;;;;;;;33.55;19.05;;;;;;;9.49;84.98;96807.25;4955111;28;20026;-79
2021/01/04 11:51:30;;;;;;;40.13;18.23;;;;;;;9.34;85.48;96805.63;5009577;28;20030;-78
2021/01/04 11:53:56;;;;;;;31.30;19.52;;;;;;;9.33;84.98;96815.44;4971475;28;20088;-79
2021/01/04 11:56:23;;;;;;;33.58;20.08;;;;;;;9.34;85.08;96805.63;4973486;28;20039;-78
2021/01/04 11:58:49;;;;;;;39.72;20.55;;;;;;;9.36;85.75;96782.34;4959264;28;20430;-79
2021/01/04 12:01:16;;;;;;;48.08;24.98;;;;;;;9.46;85.05;96791.44;4958815;28;20042;-78
2021/01/04 12:03:42;;;;;;;125.60;54.22;;;;;;;9.55;84.82;96798.81;5026073;28;20175;-79
2021/01/04 12:06:09;;;;;;;64.15;32.25;;;;;;;9.52;83.74;96773.19;5003704;28;20026;-79
2021/01/04 12:08:35;;;;;;;63.10;30.38;;;;;;;9.37;84.70;96757.38;4958117;28;20050;-79
2021/01/04 12:11:01;;;;;;;45.13;22.58;;;;;;;9.68;84.36;96780.97;4973795;28;20031;-78
2021/01/04 12:13:27;;;;;;;48.85;23.33;;;;;;;9.71;83.38;96772.75;4957754;28;20038;-79